Time;durP1;ratioP1;P1;durP2;ratioP2;P2;SDS_P1;SDS_P2;PMS_P1;PMS_P2;Temp;Humidity;BMP_temperature;BMP_pressure;BME280_temperature;BME280_humidity;BME280_pressure;Samples;Min_cycle;Max_cycle;Signal;HPM_P1;HPM_P2
2022/12/02 00:00:27;;;;;;;78.33;38.57;;;;;;;;;;6284197;22;20625;-69
2022/12/02 00:02:54;;;;;;;61.20;32.00;;;;;;;;;;6311591;22;20609;-69
2022/12/02 00:05:27;;;;;;;74.00;40.43;;;;;;;;;;6283935;22;20180;-69
2022/12/02 00:07:54;;;;;;;77.10;41.50;;;;;;;;;;6284029;22;20152;-69
2022/12/02 00:10:20;;;;;;;73.73;39.77;;;;;;;;;;6285540;22;20167;-69
2022/12/02 00:12:46;;;;;;;84.20;44.87;;;;;;;;;;6313227;22;20152;-69
2022/12/02 00:15:27;;;;;;;76.97;41.93;;;;;;;;;;6311536;22;20215;-69
2022/12/02 00:17:53;;;;;;;80.53;43.07;;;;;;;;;;6311418;22;20246;-69
2022/12/02 00:20:19;;;;;;;76.80;42.50;;;;;;;;;;6285531;22;20599;-70
2022/12/02 00:22:45;;;;;;;74.60;41.40;;;;;;;;;;6284045;22;20505;-69
2022/12/02 00:25:11;;;;;;;69.30;36.07;;;;;;;;;;6284105;22;20626;-69
2022/12/02 00:27:37;;;;;;;75.13;39.83;;;;;;;;;;6311464;22;20156;-69
2022/12/02 00:30:03;;;;;;;66.63;36.23;;;;;;;;;;6311589;22;20222;-69
2022/12/02 00:32:29;;;;;;;45.93;20.33;;;;;;;;;;6311431;22;20152;-69
2022/12/02 00:34:55;;;;;;;69.60;37.87;;;;;;;;;;6311181;22;20242;-69
2022/12/02 00:37:21;;;;;;;65.53;36.03;;;;;;;;;;6283839;22;20521;-69
2022/12/02 00:39:46;;;;;;;54.70;31.83;;;;;;;;;;6283808;22;20609;-70
2022/12/02 00:42:12;;;;;;;58.30;33.63;;;;;;;;;;6311205;22;20545;-69
2022/12/02 00:47:23;;;;;;;54.70;32.67;;;;;;;;;;6318030;22;20155;-70
2022/12/02 00:49:49;;;;;;;61.77;36.17;;;;;;;;;;6332354;22;20180;-70
2022/12/02 00:52:15;;;;;;;61.73;36.50;;;;;;;;;;6331740;22;20160;-70
2022/12/02 00:54:41;;;;;;;62.07;36.37;;;;;;;;;;6303432;22;20180;-69
2022/12/02 00:57:06;;;;;;;66.27;36.80;;;;;;;;;;6284058;22;20177;-70
2022/12/02 00:59:33;;;;;;;67.23;37.83;;;;;;;;;;6283173;22;20290;-69
2022/12/02 01:01:58;;;;;;;62.47;36.60;;;;;;;;;;6284486;22;20498;-70
2022/12/02 01:04:24;;;;;;;64.53;36.10;;;;;;;;;;6309287;22;20257;-70
2022/12/02 01:06:50;;;;;;;65.40;37.13;;;;;;;;;;6282176;22;20156;-69
2022/12/02 01:09:16;;;;;;;61.53;33.27;;;;;;;;;;6309515;22;20590;-69
2022/12/02 01:11:42;;;;;;;56.93;32.87;;;;;;;;;;6282021;22;20515;-69
2022/12/02 01:14:08;;;;;;;70.47;35.40;;;;;;;;;;6309246;22;20232;-69
2022/12/02 01:16:34;;;;;;;73.37;35.17;;;;;;;;;;6282022;22;20560;-69
2022/12/02 01:19:00;;;;;;;66.20;35.27;;;;;;;;;;6281710;22;20282;-69
2022/12/02 01:21:26;;;;;;;64.43;30.50;;;;;;;;;;6309653;22;20149;-69
2022/12/02 01:23:52;;;;;;;71.77;38.43;;;;;;;;;;6281600;22;20322;-69
2022/12/02 01:26:18;;;;;;;68.33;35.23;;;;;;;;;;6309121;22;20152;-70
2022/12/02 01:28:44;;;;;;;69.97;38.20;;;;;;;;;;6309682;22;20214;-70
2022/12/02 01:31:10;;;;;;;65.83;36.17;;;;;;;;;;6309707;22;20187;-69
2022/12/02 01:33:36;;;;;;;70.50;37.50;;;;;;;;;;6309646;22;20239;-69
2022/12/02 01:36:02;;;;;;;68.20;35.60;;;;;;;;;;6308954;22;20601;-69
2022/12/02 01:38:28;;;;;;;76.97;38.73;;;;;;;;;;6281673;22;20163;-69
2022/12/02 01:40:54;;;;;;;73.53;41.23;;;;;;;;;;6309217;22;20148;-70
2022/12/02 01:43:20;;;;;;;70.10;37.73;;;;;;;;;;6309655;22;20152;-69
2022/12/02 01:45:46;;;;;;;71.20;39.07;;;;;;;;;;6308963;22;20189;-70
2022/12/02 01:48:12;;;;;;;71.27;39.03;;;;;;;;;;6309251;22;20155;-70
2022/12/02 01:50:38;;;;;;;71.27;39.87;;;;;;;;;;6312007;22;20195;-70
2022/12/02 01:53:04;;;;;;;73.67;37.27;;;;;;;;;;6310086;22;20367;-69
2022/12/02 01:55:30;;;;;;;66.37;34.43;;;;;;;;;;6308904;22;20168;-70
2022/12/02 01:57:57;;;;;;;72.57;37.13;;;;;;;;;;6281921;22;20626;-70
2022/12/02 02:00:23;;;;;;;69.93;36.40;;;;;;;;;;6281917;22;20201;-69
2022/12/02 02:02:49;;;;;;;60.77;33.40;;;;;;;;;;6309816;22;20223;-70
2022/12/02 02:05:42;;;;;;;62.80;33.50;;;;;;;;;;6281622;22;20168;-69
2022/12/02 02:08:09;;;;;;;63.07;33.70;;;;;;;;;;6303613;22;20548;-69
2022/12/02 02:10:36;;;;;;;60.33;32.53;;;;;;;;;;6309434;22;20149;-69
2022/12/02 02:13:03;;;;;;;57.23;31.20;;;;;;;;;;6281711;22;20190;-69
2022/12/02 02:15:29;;;;;;;55.50;30.30;;;;;;;;;;6308825;22;20180;-69
2022/12/02 02:17:56;;;;;;;44.80;26.90;;;;;;;;;;6281496;22;20184;-69
2022/12/02 02:20:22;;;;;;;56.67;32.07;;;;;;;;;;6309050;22;20151;-70
2022/12/02 02:22:56;;;;;;;54.33;32.83;;;;;;;;;;6281784;22;20152;-70
2022/12/02 02:25:22;;;;;;;53.97;31.37;;;;;;;;;;6309205;22;20251;-69
2022/12/02 02:27:52;;;;;;;52.33;29.87;;;;;;;;;;6309109;22;20178;-70
2022/12/02 02:30:18;;;;;;;61.33;32.63;;;;;;;;;;6282074;22;20153;-70
2022/12/02 02:32:44;;;;;;;53.17;30.90;;;;;;;;;;6309019;22;20148;-69
2022/12/02 02:35:10;;;;;;;56.50;31.73;;;;;;;;;;6308918;22;20184;-70
2022/12/02 02:37:36;;;;;;;54.07;31.07;;;;;;;;;;6281332;22;20184;-69
2022/12/02 02:40:02;;;;;;;58.53;31.63;;;;;;;;;;6309378;22;20149;-69
2022/12/02 02:42:28;;;;;;;59.47;32.53;;;;;;;;;;6311201;22;20155;-69
2022/12/02 02:44:54;;;;;;;53.10;32.10;;;;;;;;;;6308897;22;20687;-69
2022/12/02 02:47:20;;;;;;;54.20;30.43;;;;;;;;;;6308383;22;20160;-69
2022/12/02 02:49:46;;;;;;;47.30;27.13;;;;;;;;;;6281021;22;20160;-71
2022/12/02 02:52:12;;;;;;;57.50;31.33;;;;;;;;;;6308556;22;20149;-69
2022/12/02 02:54:38;;;;;;;50.57;28.20;;;;;;;;;;6309069;22;20243;-70
2022/12/02 02:57:04;;;;;;;59.00;30.90;;;;;;;;;;6309417;22;20176;-69
2022/12/02 02:59:30;;;;;;;54.77;30.13;;;;;;;;;;6282036;22;20152;-71
2022/12/02 03:01:56;;;;;;;58.17;31.77;;;;;;;;;;6308941;22;20179;-70
2022/12/02 03:04:23;;;;;;;53.40;31.70;;;;;;;;;;6309557;22;20221;-70
2022/12/02 03:06:50;;;;;;;55.97;31.47;;;;;;;;;;6308934;22;20148;-69
2022/12/02 03:09:17;;;;;;;53.10;30.03;;;;;;;;;;6309342;22;20159;-69
2022/12/02 03:11:44;;;;;;;50.53;28.17;;;;;;;;;;6309766;22;20159;-69
2022/12/02 03:14:11;;;;;;;54.37;30.70;;;;;;;;;;6309694;22;20151;-69
2022/12/02 03:16:37;;;;;;;50.23;30.10;;;;;;;;;;6308677;22;20692;-70
2022/12/02 03:19:04;;;;;;;52.47;28.80;;;;;;;;;;6309039;22;20148;-70
2022/12/02 03:21:32;;;;;;;53.30;30.37;;;;;;;;;;6308972;22;20145;-69
2022/12/02 03:23:59;;;;;;;54.27;29.93;;;;;;;;;;6308704;22;20488;-69
2022/12/02 03:26:27;;;;;;;49.83;30.47;;;;;;;;;;6309979;22;20152;-70
2022/12/02 03:28:53;;;;;;;46.93;28.93;;;;;;;;;;6309017;22;20206;-69
2022/12/02 03:31:19;;;;;;;47.93;29.03;;;;;;;;;;6311595;22;20172;-70
2022/12/02 03:33:45;;;;;;;51.67;30.33;;;;;;;;;;6281999;22;20193;-69
2022/12/02 03:36:11;;;;;;;52.70;30.60;;;;;;;;;;6307778;22;20234;-69
2022/12/02 03:38:37;;;;;;;45.60;27.60;;;;;;;;;;6282126;22;20555;-69
2022/12/02 03:41:04;;;;;;;55.27;31.70;;;;;;;;;;6311649;22;20148;-69
2022/12/02 03:43:30;;;;;;;55.87;32.07;;;;;;;;;;6311445;22;20227;-70
2022/12/02 03:45:56;;;;;;;49.90;27.87;;;;;;;;;;6311324;22;20637;-70
2022/12/02 03:48:23;;;;;;;53.33;31.03;;;;;;;;;;6309894;22;20149;-69
2022/12/02 03:50:50;;;;;;;52.50;30.80;;;;;;;;;;6281722;22;20163;-70
2022/12/02 03:53:16;;;;;;;53.63;30.97;;;;;;;;;;6311191;22;20152;-69
2022/12/02 03:55:42;;;;;;;49.13;29.90;;;;;;;;;;6309686;22;20515;-70
2022/12/02 03:58:08;;;;;;;52.47;28.63;;;;;;;;;;6309808;22;20153;-70
2022/12/02 04:00:35;;;;;;;46.70;26.97;;;;;;;;;;6283357;22;20605;-69
2022/12/02 04:03:01;;;;;;;48.30;29.60;;;;;;;;;;6286506;22;20160;-70
2022/12/02 04:05:27;;;;;;;55.27;32.03;;;;;;;;;;6317196;22;20472;-70
2022/12/02 04:07:53;;;;;;;50.67;29.00;;;;;;;;;;6317461;22;20153;-69
2022/12/02 04:10:19;;;;;;;48.37;27.23;;;;;;;;;;6317933;22;20144;-70
2022/12/02 04:12:45;;;;;;;44.97;23.90;;;;;;;;;;6317288;22;20557;-70
2022/12/02 04:15:11;;;;;;;53.83;30.40;;;;;;;;;;6312063;22;20168;-69
2022/12/02 04:17:37;;;;;;;54.13;28.33;;;;;;;;;;6282771;22;20180;-69
2022/12/02 04:20:04;;;;;;;53.83;31.33;;;;;;;;;;6311844;22;20495;-69
2022/12/02 04:22:30;;;;;;;54.17;30.63;;;;;;;;;;6312719;22;20156;-70
2022/12/02 04:24:58;;;;;;;53.07;29.63;;;;;;;;;;6311441;22;20222;-70
2022/12/02 04:27:24;;;;;;;51.87;31.10;;;;;;;;;;6311220;22;20153;-69
2022/12/02 04:29:50;;;;;;;51.47;26.43;;;;;;;;;;6310064;22;20145;-70
2022/12/02 04:32:16;;;;;;;43.33;26.87;;;;;;;;;;6310720;22;20156;-69
2022/12/02 04:34:42;;;;;;;51.63;29.27;;;;;;;;;;6310820;22;20195;-69
2022/12/02 04:37:08;;;;;;;54.33;29.23;;;;;;;;;;6289618;22;20630;-70
2022/12/02 04:39:34;;;;;;;51.57;29.10;;;;;;;;;;6286793;22;20148;-70
2022/12/02 04:42:00;;;;;;;53.10;29.67;;;;;;;;;;6289182;22;20499;-70
2022/12/02 04:44:26;;;;;;;51.53;28.10;;;;;;;;;;6316266;22;20556;-70
2022/12/02 04:46:51;;;;;;;44.90;26.07;;;;;;;;;;6290440;22;20183;-71
2022/12/02 04:49:17;;;;;;;46.43;24.43;;;;;;;;;;6288152;22;20498;-71
2022/12/02 04:51:43;;;;;;;50.10;29.03;;;;;;;;;;6285582;22;20165;-70
2022/12/02 04:54:09;;;;;;;59.70;30.53;;;;;;;;;;6282562;22;20625;-69
2022/12/02 04:56:35;;;;;;;54.40;29.07;;;;;;;;;;6309463;22;20637;-70
2022/12/02 04:59:01;;;;;;;53.97;30.03;;;;;;;;;;6309502;22;20144;-69
2022/12/02 05:01:27;;;;;;;55.23;27.10;;;;;;;;;;6309239;22;20258;-70
2022/12/02 05:03:53;;;;;;;53.47;29.43;;;;;;;;;;6281961;22;20569;-69
2022/12/02 05:06:19;;;;;;;53.33;29.80;;;;;;;;;;6309947;22;20491;-69
2022/12/02 05:08:45;;;;;;;49.73;26.67;;;;;;;;;;6309413;22;20148;-70
2022/12/02 05:11:11;;;;;;;54.27;29.50;;;;;;;;;;6312932;22;20175;-70
2022/12/02 05:13:37;;;;;;;51.43;27.60;;;;;;;;;;6309298;22;20156;-69
2022/12/02 05:16:03;;;;;;;45.10;22.80;;;;;;;;;;6308941;22;20176;-69
2022/12/02 05:18:29;;;;;;;54.83;27.93;;;;;;;;;;6282043;22;20162;-70
2022/12/02 05:20:55;;;;;;;56.07;30.00;;;;;;;;;;6309569;22;20571;-70
2022/12/02 05:23:21;;;;;;;51.20;28.27;;;;;;;;;;6309145;22;20491;-69
2022/12/02 05:25:47;;;;;;;53.70;28.40;;;;;;;;;;6281671;22;20394;-69
2022/12/02 05:28:13;;;;;;;54.33;29.17;;;;;;;;;;6309179;22;20604;-69
2022/12/02 05:30:39;;;;;;;57.43;29.23;;;;;;;;;;6282031;22;20182;-70
2022/12/02 05:33:05;;;;;;;54.33;28.40;;;;;;;;;;6309277;22;20213;-70
2022/12/02 05:35:31;;;;;;;55.27;28.43;;;;;;;;;;6308878;22;20180;-69
2022/12/02 05:37:57;;;;;;;45.17;23.00;;;;;;;;;;6281616;22;20216;-70
2022/12/02 05:40:23;;;;;;;54.10;26.93;;;;;;;;;;6308815;22;20159;-70
2022/12/02 05:42:49;;;;;;;53.70;27.57;;;;;;;;;;6309541;22;20148;-69
2022/12/02 05:45:16;;;;;;;53.13;28.10;;;;;;;;;;6281502;22;20221;-70
2022/12/02 05:47:42;;;;;;;57.47;29.30;;;;;;;;;;6308959;22;20173;-70
2022/12/02 05:50:12;;;;;;;60.27;30.70;;;;;;;;;;6309213;22;20378;-70
2022/12/02 05:52:38;;;;;;;57.10;27.47;;;;;;;;;;6308973;22;20149;-70
2022/12/02 05:55:11;;;;;;;58.07;29.10;;;;;;;;;;6309174;22;20172;-70
2022/12/02 05:57:36;;;;;;;56.53;29.30;;;;;;;;;;6309165;22;20556;-70
2022/12/02 06:00:09;;;;;;;55.30;27.60;;;;;;;;;;6285029;22;20153;-70
2022/12/02 06:02:40;;;;;;;57.10;30.63;;;;;;;;;;6297147;22;20173;-70
2022/12/02 06:05:18;;;;;;;56.07;28.67;;;;;;;;;;6295210;22;20168;-70
2022/12/02 06:07:44;;;;;;;61.27;31.33;;;;;;;;;;6323518;22;20149;-69
2022/12/02 06:10:17;;;;;;;66.40;30.87;;;;;;;;;;6311440;22;20163;-69
2022/12/02 06:12:43;;;;;;;54.47;29.90;;;;;;;;;;6308706;22;20366;-70
2022/12/02 06:15:13;;;;;;;54.73;29.33;;;;;;;;;;6308870;22;20721;-69
2022/12/02 06:17:39;;;;;;;55.23;28.43;;;;;;;;;;6308595;22;20260;-69
2022/12/02 06:20:05;;;;;;;55.83;30.20;;;;;;;;;;6308303;22;20419;-69
2022/12/02 06:22:32;;;;;;;60.90;30.87;;;;;;;;;;6308358;22;20156;-70
2022/12/02 06:25:02;;;;;;;59.20;30.90;;;;;;;;;;6308592;22;20383;-70
2022/12/02 06:29:59;;;;;;;52.83;29.20;;;;;;;;;;6310269;22;20446;-72
2022/12/02 06:32:35;;;;;;;58.30;31.43;;;;;;;;;;6310840;22;20198;-72
2022/12/02 06:35:04;;;;;;;55.83;28.17;;;;;;;;;;6283863;22;20367;-71
2022/12/02 06:37:30;;;;;;;54.23;27.47;;;;;;;;;;6310921;22;20264;-71
2022/12/02 06:39:58;;;;;;;60.33;28.73;;;;;;;;;;6283325;22;20403;-71
2022/12/02 06:42:32;;;;;;;55.83;29.87;;;;;;;;;;6310524;22;20167;-71
2022/12/02 06:45:06;;;;;;;58.67;27.30;;;;;;;;;;6283482;22;20379;-71
2022/12/02 06:47:32;;;;;;;61.87;30.13;;;;;;;;;;6311016;22;20132;-70
2022/12/02 06:50:18;;;;;;;38.97;17.30;;;;;;;;;;6283577;22;20159;-68
2022/12/02 06:52:44;;;;;;;54.77;25.63;;;;;;;;;;6310009;22;20598;-71
2022/12/02 06:55:19;;;;;;;63.60;29.17;;;;;;;;;;6310943;22;20462;-70
2022/12/02 06:57:45;;;;;;;56.90;26.17;;;;;;;;;;6283546;22;20428;-72
2022/12/02 07:00:11;;;;;;;60.97;28.37;;;;;;;;;;6311103;22;20231;-72
2022/12/02 07:02:39;;;;;;;68.33;31.77;;;;;;;;;;6310794;22;20475;-72
2022/12/02 07:05:06;;;;;;;69.80;31.67;;;;;;;;;;6310639;22;20149;-73
2022/12/02 07:07:33;;;;;;;68.17;32.87;;;;;;;;;;6310757;22;20153;-69
2022/12/02 07:10:00;;;;;;;62.20;30.03;;;;;;;;;;6311293;22;20534;-72
2022/12/02 07:12:32;;;;;;;60.77;29.80;;;;;;;;;;6310910;22;20389;-73
2022/12/02 07:14:59;;;;;;;67.03;31.73;;;;;;;;;;6311337;22;20198;-73
2022/12/02 07:17:25;;;;;;;63.40;30.30;;;;;;;;;;6283543;22;20627;-71
2022/12/02 07:20:05;;;;;;;54.47;25.90;;;;;;;;;;6283615;22;20172;-72
2022/12/02 07:22:31;;;;;;;70.30;33.90;;;;;;;;;;6311257;22;20136;-72
2022/12/02 07:25:06;;;;;;;52.80;24.50;;;;;;;;;;6284113;22;20174;-70
2022/12/02 07:27:35;;;;;;;52.13;25.60;;;;;;;;;;6283776;22;20155;-70
2022/12/02 07:30:02;;;;;;;64.60;32.27;;;;;;;;;;6284008;22;20718;-72
2022/12/02 07:32:28;;;;;;;70.20;34.30;;;;;;;;;;6283602;22;20371;-72
2022/12/02 07:34:54;;;;;;;65.83;32.97;;;;;;;;;;6284171;22;20164;-72
2022/12/02 07:37:20;;;;;;;70.23;29.53;;;;;;;;;;6310895;22;20173;-72
2022/12/02 07:39:46;;;;;;;65.87;31.57;;;;;;;;;;6310451;22;20172;-71
2022/12/02 07:42:13;;;;;;;65.27;33.27;;;;;;;;;;6310667;22;20367;-72
2022/12/02 07:44:39;;;;;;;56.67;26.50;;;;;;;;;;6284569;22;20162;-71
2022/12/02 07:47:06;;;;;;;69.03;33.83;;;;;;;;;;6283522;22;20367;-71
2022/12/02 07:49:32;;;;;;;57.73;30.10;;;;;;;;;;6283244;22;20172;-72
2022/12/02 07:51:58;;;;;;;61.67;31.43;;;;;;;;;;6310395;22;20153;-71
2022/12/02 07:54:24;;;;;;;69.77;33.43;;;;;;;;;;6283621;22;20160;-71
2022/12/02 07:56:50;;;;;;;67.57;33.53;;;;;;;;;;6284158;22;20213;-71
2022/12/02 07:59:16;;;;;;;69.23;32.60;;;;;;;;;;6283629;22;20233;-72
2022/12/02 08:01:44;;;;;;;71.13;32.77;;;;;;;;;;6283935;22;20163;-72
2022/12/02 08:04:10;;;;;;;57.63;26.10;;;;;;;;;;6285608;22;20213;-72
2022/12/02 08:06:35;;;;;;;61.53;28.20;;;;;;;;;;6313195;22;20231;-72
2022/12/02 08:09:02;;;;;;;63.00;30.60;;;;;;;;;;6312982;22;20176;-72
2022/12/02 08:11:27;;;;;;;65.03;29.23;;;;;;;;;;6313730;22;20153;-71
2022/12/02 08:13:54;;;;;;;72.13;32.87;;;;;;;;;;6312942;22;20477;-72
2022/12/02 08:16:20;;;;;;;59.43;29.50;;;;;;;;;;6285580;22;20203;-72
2022/12/02 08:18:46;;;;;;;74.17;35.07;;;;;;;;;;6313128;22;20390;-71
2022/12/02 08:21:12;;;;;;;67.10;33.27;;;;;;;;;;6313542;22;20150;-72
2022/12/02 08:23:38;;;;;;;63.57;31.50;;;;;;;;;;6312942;22;20168;-71
2022/12/02 08:26:04;;;;;;;70.17;34.63;;;;;;;;;;6312648;22;20148;-74
2022/12/02 08:28:30;;;;;;;59.93;28.70;;;;;;;;;;6284972;22;20192;-71
2022/12/02 08:30:56;;;;;;;48.60;20.97;;;;;;;;;;6285024;22;20209;-73
2022/12/02 08:33:22;;;;;;;57.90;26.63;;;;;;;;;;6284785;22;20151;-71
2022/12/02 08:35:48;;;;;;;76.70;37.57;;;;;;;;;;6285643;22;20156;-71
2022/12/02 08:38:14;;;;;;;67.47;34.03;;;;;;;;;;6312002;22;20192;-72
2022/12/02 08:40:40;;;;;;;63.73;30.53;;;;;;;;;;6313371;22;20151;-71
2022/12/02 08:43:06;;;;;;;69.10;29.47;;;;;;;;;;6312855;22;20190;-71
2022/12/02 08:45:32;;;;;;;65.93;33.17;;;;;;;;;;6312399;22;20487;-73
2022/12/02 08:47:58;;;;;;;58.43;31.20;;;;;;;;;;6284934;22;20173;-71
2022/12/02 08:50:24;;;;;;;52.43;25.40;;;;;;;;;;6286344;22;20152;-71
2022/12/02 08:52:50;;;;;;;63.43;31.73;;;;;;;;;;6312570;22;20168;-73
2022/12/02 08:55:16;;;;;;;63.07;31.20;;;;;;;;;;6313215;22;20371;-69
2022/12/02 08:57:42;;;;;;;69.37;34.00;;;;;;;;;;6284787;22;20212;-70
2022/12/02 09:00:08;;;;;;;59.03;31.20;;;;;;;;;;6285012;22;20145;-71
2022/12/02 09:02:35;;;;;;;64.63;29.97;;;;;;;;;;6312173;22;20602;-71
2022/12/02 09:05:01;;;;;;;65.40;33.63;;;;;;;;;;6312364;22;20145;-71
2022/12/02 09:07:27;;;;;;;64.83;33.83;;;;;;;;;;6314461;22;20149;-71
2022/12/02 09:09:53;;;;;;;62.67;32.73;;;;;;;;;;6313479;22;20204;-71
2022/12/02 09:12:19;;;;;;;59.77;33.20;;;;;;;;;;6287926;22;20153;-71
2022/12/02 09:14:44;;;;;;;62.90;28.10;;;;;;;;;;6285489;22;20184;-71
2022/12/02 09:17:10;;;;;;;62.37;31.00;;;;;;;;;;6313856;22;20630;-71
2022/12/02 09:19:36;;;;;;;45.77;25.20;;;;;;;;;;6285866;22;20190;-70
2022/12/02 09:22:02;;;;;;;53.47;24.53;;;;;;;;;;6285997;22;20152;-71
2022/12/02 09:24:28;;;;;;;60.80;30.53;;;;;;;;;;6313145;22;20485;-71
2022/12/02 09:26:54;;;;;;;62.77;33.73;;;;;;;;;;6311830;22;20152;-72
2022/12/02 09:29:20;;;;;;;60.83;30.13;;;;;;;;;;6309901;22;20583;-71
2022/12/02 09:31:46;;;;;;;61.67;34.10;;;;;;;;;;6312393;22;20194;-71
2022/12/02 09:34:12;;;;;;;62.00;33.73;;;;;;;;;;6312064;22;20622;-71
2022/12/02 09:36:38;;;;;;;57.00;31.03;;;;;;;;;;6284889;22;20579;-71
2022/12/02 09:39:04;;;;;;;50.77;29.90;;;;;;;;;;6284381;22;20581;-71
2022/12/02 09:41:30;;;;;;;57.60;31.07;;;;;;;;;;6312309;22;20145;-71
2022/12/02 09:43:56;;;;;;;53.93;30.87;;;;;;;;;;6312104;22;20149;-72
2022/12/02 09:46:22;;;;;;;52.87;31.50;;;;;;;;;;6285029;22;20180;-71
2022/12/02 09:48:48;;;;;;;48.30;29.03;;;;;;;;;;6312272;22;20460;-72
2022/12/02 09:51:14;;;;;;;47.47;25.57;;;;;;;;;;6312420;22;20160;-73
2022/12/02 09:53:41;;;;;;;52.07;31.60;;;;;;;;;;6311699;22;20200;-72
2022/12/02 09:56:13;;;;;;;40.87;24.40;;;;;;;;;;6284267;22;20379;-72
2022/12/02 09:58:39;;;;;;;56.87;29.77;;;;;;;;;;6311795;22;20172;-72
2022/12/02 10:01:08;;;;;;;52.40;30.67;;;;;;;;;;6312450;22;20703;-72
2022/12/02 10:03:34;;;;;;;36.13;21.70;;;;;;;;;;6311877;22;20210;-72
2022/12/02 10:06:01;;;;;;;50.67;28.27;;;;;;;;;;6284106;22;20371;-73
2022/12/02 10:08:27;;;;;;;43.50;23.47;;;;;;;;;;6284165;22;20168;-71
2022/12/02 10:10:55;;;;;;;51.33;31.20;;;;;;;;;;6285181;22;20371;-72
2022/12/02 10:13:25;;;;;;;51.83;31.17;;;;;;;;;;6284224;22;20849;-71
2022/12/02 10:15:52;;;;;;;55.03;32.33;;;;;;;;;;6312533;22;20152;-71
2022/12/02 10:18:19;;;;;;;52.13;28.53;;;;;;;;;;6284631;22;20658;-70
2022/12/02 10:20:46;;;;;;;52.43;28.83;;;;;;;;;;6284384;22;20659;-72
2022/12/02 10:23:19;;;;;;;50.33;28.73;;;;;;;;;;6284302;22;20450;-71
2022/12/02 10:25:47;;;;;;;52.70;30.77;;;;;;;;;;6284939;22;20410;-72
2022/12/02 10:28:27;;;;;;;52.30;31.37;;;;;;;;;;6311093;22;20260;-71
2022/12/02 10:30:56;;;;;;;54.07;31.63;;;;;;;;;;6283853;22;20582;-70
2022/12/02 10:33:24;;;;;;;55.13;31.73;;;;;;;;;;6283990;22;20156;-71
2022/12/02 10:35:51;;;;;;;53.30;29.13;;;;;;;;;;6311062;22;20157;-71
2022/12/02 10:38:29;;;;;;;59.00;33.93;;;;;;;;;;6311279;22;20661;-72
2022/12/02 10:41:11;;;;;;;61.07;33.70;;;;;;;;;;6283715;22;20462;-72
2022/12/02 10:43:37;;;;;;;51.30;29.17;;;;;;;;;;6310467;22;20579;-72
2022/12/02 10:46:02;;;;;;;37.33;19.60;;;;;;;;;;6282975;22;20442;-71
2022/12/02 10:48:28;;;;;;;50.20;25.73;;;;;;;;;;6282848;22;20183;-72
2022/12/02 10:50:55;;;;;;;53.57;29.90;;;;;;;;;;6283794;22;20163;-72
2022/12/02 10:53:22;;;;;;;53.03;31.27;;;;;;;;;;6283753;22;20159;-72
2022/12/02 10:55:48;;;;;;;43.10;25.03;;;;;;;;;;6283671;22;20149;-72
2022/12/02 10:58:17;;;;;;;49.97;29.73;;;;;;;;;;6310300;22;20253;-73
2022/12/02 11:00:43;;;;;;;47.80;27.40;;;;;;;;;;6311376;22;20176;-71
2022/12/02 11:03:10;;;;;;;54.60;30.83;;;;;;;;;;6313232;22;20149;-72
2022/12/02 11:05:37;;;;;;;55.03;31.70;;;;;;;;;;6284161;22;20153;-72
2022/12/02 11:08:04;;;;;;;39.60;22.70;;;;;;;;;;6312096;22;20429;-72
2022/12/02 11:10:37;;;;;;;49.30;29.30;;;;;;;;;;6283957;22;20378;-71
2022/12/02 11:13:05;;;;;;;42.87;24.03;;;;;;;;;;6311543;22;20403;-72
2022/12/02 11:15:36;;;;;;;57.00;29.47;;;;;;;;;;6311844;22;20371;-73
2022/12/02 11:18:02;;;;;;;48.00;24.87;;;;;;;;;;6311189;22;20908;-73
2022/12/02 11:20:44;;;;;;;47.97;23.97;;;;;;;;;;6283819;22;20371;-73
2022/12/02 11:23:13;;;;;;;42.40;22.97;;;;;;;;;;6310697;22;20559;-72
2022/12/02 11:25:42;;;;;;;41.23;22.30;;;;;;;;;;6310581;22;20172;-72
2022/12/02 11:28:14;;;;;;;35.90;20.43;;;;;;;;;;6309472;22;20184;-72
2022/12/02 11:30:40;;;;;;;49.10;27.50;;;;;;;;;;6310570;22;20387;-72
2022/12/02 11:33:10;;;;;;;41.50;19.93;;;;;;;;;;6310391;22;20367;-71
2022/12/02 11:35:54;;;;;;;52.83;30.63;;;;;;;;;;6311108;22;20155;-71
2022/12/02 11:38:23;;;;;;;56.33;31.37;;;;;;;;;;6283045;22;20200;-71
2022/12/02 11:40:49;;;;;;;40.03;22.17;;;;;;;;;;6282908;22;20761;-72
2022/12/02 11:43:34;;;;;;;54.37;29.53;;;;;;;;;;6310402;22;20367;-71
2022/12/02 11:46:00;;;;;;;52.27;30.03;;;;;;;;;;6283132;22;20159;-70
2022/12/02 11:48:26;;;;;;;44.47;21.37;;;;;;;;;;6283265;22;20390;-70
2022/12/02 11:50:53;;;;;;;46.27;24.60;;;;;;;;;;6282672;22;20148;-71
2022/12/02 11:53:21;;;;;;;48.17;27.03;;;;;;;;;;6282657;22;20206;-73
2022/12/02 11:55:48;;;;;;;53.07;26.60;;;;;;;;;;6309843;22;20398;-72
2022/12/02 11:58:28;;;;;;;54.17;30.30;;;;;;;;;;6310213;22;20422;-71
2022/12/02 12:01:00;;;;;;;48.73;29.27;;;;;;;;;;6283604;22;20432;-73
2022/12/02 12:03:26;;;;;;;49.80;24.90;;;;;;;;;;6281839;22;20371;-75
2022/12/02 12:06:04;;;;;;;39.13;18.60;;;;;;;;;;6282321;22;20149;-72
2022/12/02 12:08:30;;;;;;;43.87;21.87;;;;;;;;;;6309464;22;20168;-72
2022/12/02 12:11:15;;;;;;;50.63;26.33;;;;;;;;;;6309764;22;20447;-73
2022/12/02 12:13:59;;;;;;;52.83;31.07;;;;;;;;;;6310373;22;20153;-72
2022/12/02 12:16:25;;;;;;;51.27;27.53;;;;;;;;;;6310815;22;20200;-72
2022/12/02 12:18:51;;;;;;;53.20;31.83;;;;;;;;;;6310794;22;20165;-72
2022/12/02 12:21:46;;;;;;;54.97;30.77;;;;;;;;;;6283565;22;20157;-71
2022/12/02 12:24:25;;;;;;;51.43;27.47;;;;;;;;;;6280263;22;20160;-71
2022/12/02 12:26:54;;;;;;;51.30;29.47;;;;;;;;;;6310649;22;20347;-72
2022/12/02 12:29:21;;;;;;;61.03;35.07;;;;;;;;;;6310691;22;20184;-72
2022/12/02 12:31:48;;;;;;;45.80;26.70;;;;;;;;;;6282103;22;20203;-72
2022/12/02 12:34:17;;;;;;;50.70;28.60;;;;;;;;;;6308709;22;20153;-73
2022/12/02 12:36:44;;;;;;;62.00;35.40;;;;;;;;;;6309990;22;20421;-72
2022/12/02 12:39:10;;;;;;;62.57;37.33;;;;;;;;;;6310298;22;20169;-72
2022/12/02 12:41:36;;;;;;;54.07;31.67;;;;;;;;;;6310322;22;20190;-70
2022/12/02 12:44:02;;;;;;;57.90;30.80;;;;;;;;;;6309447;22;20591;-71
2022/12/02 12:46:28;;;;;;;57.53;34.13;;;;;;;;;;6282590;22;20429;-72
2022/12/02 12:48:54;;;;;;;70.83;36.70;;;;;;;;;;6309844;22;20172;-69
2022/12/02 12:51:20;;;;;;;63.57;32.27;;;;;;;;;;6284126;22;20195;-74
2022/12/02 12:53:47;;;;;;;55.40;29.47;;;;;;;;;;6312086;22;20378;-72
2022/12/02 12:56:12;;;;;;;60.63;34.23;;;;;;;;;;6312797;22;20202;-71
2022/12/02 12:58:38;;;;;;;55.97;31.20;;;;;;;;;;6312820;22;20386;-71
2022/12/02 13:01:04;;;;;;;61.53;35.00;;;;;;;;;;6284872;22;20235;-71
2022/12/02 13:03:30;;;;;;;58.83;33.33;;;;;;;;;;6284362;22;20164;-70
2022/12/02 13:05:56;;;;;;;57.53;30.83;;;;;;;;;;6312810;22;20149;-72
2022/12/02 13:08:22;;;;;;;60.47;34.97;;;;;;;;;;6283780;22;20519;-72
2022/12/02 13:10:48;;;;;;;52.30;27.70;;;;;;;;;;6311931;22;20598;-71
2022/12/02 13:13:14;;;;;;;46.63;23.10;;;;;;;;;;6311854;22;20180;-71
2022/12/02 13:15:40;;;;;;;57.33;30.53;;;;;;;;;;6284811;22;20538;-71
2022/12/02 13:18:06;;;;;;;56.27;29.90;;;;;;;;;;6284608;22;20188;-71
2022/12/02 13:20:32;;;;;;;60.17;33.87;;;;;;;;;;6284926;22;20148;-71
2022/12/02 13:22:58;;;;;;;58.90;32.27;;;;;;;;;;6312404;22;20151;-71
2022/12/02 13:25:24;;;;;;;56.60;31.07;;;;;;;;;;6311856;22;20153;-71
2022/12/02 13:27:51;;;;;;;44.87;25.83;;;;;;;;;;6311621;22;20149;-69
2022/12/02 13:30:18;;;;;;;57.10;35.03;;;;;;;;;;6312566;22;20183;-71
2022/12/02 13:32:45;;;;;;;59.33;33.73;;;;;;;;;;6284647;22;20163;-70
2022/12/02 13:35:11;;;;;;;57.07;32.03;;;;;;;;;;6312067;22;20168;-71
2022/12/02 13:37:37;;;;;;;65.40;36.67;;;;;;;;;;6284136;22;20188;-70
2022/12/02 13:40:04;;;;;;;56.87;34.60;;;;;;;;;;6312036;22;20155;-70
2022/12/02 13:42:30;;;;;;;61.73;36.20;;;;;;;;;;6311548;22;20149;-71
2022/12/02 13:44:56;;;;;;;63.87;35.20;;;;;;;;;;6311615;22;20591;-70
2022/12/02 13:47:22;;;;;;;64.23;35.37;;;;;;;;;;6312640;22;20244;-71
2022/12/02 13:49:48;;;;;;;59.87;34.83;;;;;;;;;;6311611;22;20879;-70
2022/12/02 13:52:15;;;;;;;59.57;36.03;;;;;;;;;;6284360;22;20164;-70
2022/12/02 13:54:41;;;;;;;54.50;30.83;;;;;;;;;;6311974;22;20232;-68
2022/12/02 13:57:07;;;;;;;59.20;29.73;;;;;;;;;;6311472;22;20172;-70
2022/12/02 13:59:33;;;;;;;56.63;32.07;;;;;;;;;;6284059;22;20241;-71
2022/12/02 14:01:58;;;;;;;58.23;32.70;;;;;;;;;;6311694;22;20172;-70
2022/12/02 14:04:24;;;;;;;59.00;34.83;;;;;;;;;;6284331;22;20160;-71
2022/12/02 14:06:50;;;;;;;54.50;29.30;;;;;;;;;;6311419;22;20224;-71
2022/12/02 14:09:16;;;;;;;61.23;34.87;;;;;;;;;;6284340;22;20527;-68
2022/12/02 14:11:42;;;;;;;60.13;31.53;;;;;;;;;;6311690;22;20290;-72
2022/12/02 14:14:09;;;;;;;58.57;35.00;;;;;;;;;;6284046;22;20606;-71
2022/12/02 14:16:35;;;;;;;62.00;36.20;;;;;;;;;;6311163;22;20214;-70
2022/12/02 14:19:01;;;;;;;46.07;25.43;;;;;;;;;;6311762;22;20164;-71
2022/12/02 14:21:27;;;;;;;59.27;34.17;;;;;;;;;;6310994;22;20152;-68